createdAt,value
2018-08-28T00:00:25.863Z,69.30
2018-08-28T00:01:29.290Z,69.72
2018-08-28T00:02:34.028Z,69.89
2018-08-28T00:03:37.314Z,69.73
2018-08-28T00:04:40.177Z,69.23
2018-08-28T00:05:45.823Z,69.19
2018-08-28T00:06:48.729Z,69.54
2018-08-28T00:07:52.266Z,69.28
2018-08-28T00:08:55.138Z,69.99
2018-08-28T00:09:58.378Z,69.17
2018-08-28T00:11:01.246Z,69.37
2018-08-28T00:12:05.897Z,70.06
2018-08-28T00:13:08.826Z,69.86
2018-08-28T00:14:11.825Z,70.31
2018-08-28T00:15:14.764Z,70.33
2018-08-28T00:16:19.714Z,69.54
2018-08-28T00:17:22.615Z,69.91
2018-08-28T00:18:25.496Z,70.56
2018-08-28T00:19:28.349Z,69.94
2018-08-28T00:20:31.323Z,69.57
2018-08-28T00:21:34.219Z,70.05
2018-08-28T00:22:37.715Z,70.58
2018-08-28T00:23:40.975Z,70.02
2018-08-28T00:24:43.953Z,70.26
2018-08-28T00:25:46.858Z,70.41
2018-08-28T00:26:49.802Z,70.89
2018-08-28T00:27:52.705Z,70.89
2018-08-28T00:28:56.107Z,70.93
2018-08-28T00:29:59.122Z,70.67
2018-08-28T00:31:02.030Z,70.29
2018-08-28T00:32:04.919Z,70.66
2018-08-28T00:33:07.834Z,71.01
2018-08-28T00:34:10.809Z,70.60
2018-08-28T00:35:14.730Z,71.06
2018-08-28T00:36:17.905Z,71.14
2018-08-28T00:37:20.777Z,71.17
2018-08-28T00:38:23.658Z,71.29
2018-08-28T00:39:26.559Z,71.65
2018-08-28T00:40:29.469Z,71.41
2018-08-28T00:41:32.819Z,71.61
2018-08-28T00:42:35.683Z,71.44
2018-08-28T00:43:38.579Z,71.10
2018-08-28T00:44:41.477Z,71.23
2018-08-28T00:45:44.411Z,71.53
2018-08-28T00:46:47.318Z,71.51
2018-08-28T00:47:50.678Z,71.18
2018-08-28T00:48:54.481Z,70.96
2018-08-28T00:49:58.327Z,70.89
2018-08-28T00:51:01.229Z,71.57
2018-08-28T00:52:04.606Z,71.88
2018-08-28T00:53:07.498Z,71.01
2018-08-28T00:54:10.455Z,71.75
2018-08-28T00:55:13.346Z,71.28
2018-08-28T00:56:16.265Z,71.82
2018-08-28T00:57:19.820Z,71.73
2018-08-28T00:58:23.510Z,71.43
2018-08-28T00:59:26.510Z,72.27
2018-08-28T01:00:29.438Z,71.61
2018-08-28T01:01:33.515Z,71.61
2018-08-28T01:02:36.398Z,72.33
2018-08-28T01:03:39.277Z,72.40
2018-08-28T01:04:42.476Z,72.93
2018-08-28T01:05:45.729Z,73.90
2018-08-28T01:06:49.386Z,73.86
2018-08-28T01:07:52.279Z,73.37
2018-08-28T01:08:55.152Z,73.74
2018-08-28T01:09:58.066Z,73.58
2018-08-28T01:11:01.588Z,73.04
2018-08-28T01:12:04.470Z,72.96
2018-08-28T01:13:07.352Z,72.75
2018-08-28T01:14:10.236Z,72.70
2018-08-28T01:15:13.111Z,73.08
2018-08-28T01:16:16.062Z,73.09
2018-08-28T01:17:19.379Z,73.62
2018-08-28T01:18:22.278Z,73.25
2018-08-28T01:19:25.150Z,74.12
2018-08-28T01:20:28.002Z,73.99
2018-08-28T01:21:30.877Z,74.08
2018-08-28T01:22:33.778Z,74.10
2018-08-28T01:23:37.959Z,74.69
2018-08-28T01:24:41.494Z,75.27
2018-08-28T01:25:44.383Z,75.32
2018-08-28T01:26:47.238Z,74.81
2018-08-28T01:27:50.113Z,75.01
2018-08-28T01:28:53.304Z,75.02
2018-08-28T01:29:56.719Z,74.85
2018-08-28T01:30:59.697Z,75.12
2018-08-28T01:32:02.732Z,75.51
2018-08-28T01:33:06.624Z,75.19
2018-08-28T01:34:10.807Z,74.77
2018-08-28T01:35:13.705Z,75.27
2018-08-28T01:36:17.232Z,75.11
2018-08-28T01:37:20.110Z,75.69
2018-08-28T01:38:23.728Z,75.96
2018-08-28T01:39:31.831Z,76.46
2018-08-28T01:40:36.391Z,75.88
2018-08-28T01:41:40.129Z,76.09
2018-08-28T01:42:43.531Z,76.32
2018-08-28T01:43:46.409Z,76.51
2018-08-28T01:44:49.453Z,76.23
2018-08-28T01:45:52.685Z,76.65
2018-08-28T01:46:55.670Z,77.21
2018-08-28T01:47:58.576Z,77.17
2018-08-28T01:49:01.862Z,76.77
2018-08-28T01:50:05.535Z,77.45
2018-08-28T01:51:08.471Z,77.47
2018-08-28T01:52:11.380Z,77.44
2018-08-28T01:53:14.367Z,77.05
2018-08-28T01:54:18.153Z,77.88
2018-08-28T01:55:21.482Z,77.40
2018-08-28T01:56:24.411Z,77.50
2018-08-28T01:57:27.280Z,77.40
2018-08-28T01:58:31.071Z,77.30
2018-08-28T01:59:33.953Z,77.61
2018-08-28T02:00:36.822Z,77.12
2018-08-28T02:01:41.002Z,76.79
2018-08-28T02:02:43.903Z,77.00
2018-08-28T02:03:46.775Z,78.00
2018-08-28T02:04:49.650Z,77.61
2018-08-28T02:05:52.546Z,78.14
2018-08-28T02:06:55.477Z,78.13
2018-08-28T02:07:58.697Z,78.71
2018-08-28T02:09:01.631Z,78.83
2018-08-28T02:10:04.537Z,77.76
2018-08-28T02:11:07.413Z,78.56
2018-08-28T02:12:10.299Z,77.99
2018-08-28T02:13:13.241Z,78.01
2018-08-28T02:14:16.609Z,78.09
2018-08-28T02:15:19.530Z,78.32
2018-08-28T02:16:22.405Z,78.27
2018-08-28T02:17:25.303Z,77.85
2018-08-28T02:18:28.207Z,78.07
2018-08-28T02:19:31.086Z,77.74
2018-08-28T02:20:34.442Z,78.34
2018-08-28T02:21:37.325Z,78.33
2018-08-28T02:22:40.199Z,78.60
2018-08-28T02:23:43.057Z,77.65
2018-08-28T02:24:45.953Z,78.16
2018-08-28T02:25:48.857Z,78.32
2018-08-28T02:26:52.255Z,77.86
2018-08-28T02:27:55.129Z,78.61
2018-08-28T02:28:58.033Z,78.17
2018-08-28T02:30:00.949Z,78.15
2018-08-28T02:31:03.938Z,78.16
2018-08-28T02:32:07.312Z,78.05
2018-08-28T02:33:10.583Z,78.76
2018-08-28T02:34:13.543Z,78.62
2018-08-28T02:35:16.450Z,79.21
2018-08-28T02:36:20.728Z,78.25
2018-08-28T02:37:23.633Z,78.56
2018-08-28T02:38:26.529Z,78.20
2018-08-28T02:39:29.907Z,78.56
2018-08-28T02:40:32.853Z,77.93
2018-08-28T02:41:35.732Z,79.19
2018-08-28T02:42:38.605Z,78.84
2018-08-28T02:43:41.527Z,79.70
2018-08-28T02:44:44.488Z,79.67
2018-08-28T02:45:47.737Z,79.60
2018-08-28T02:46:50.594Z,79.39
2018-08-28T02:47:53.488Z,79.53
2018-08-28T02:48:56.405Z,79.03
2018-08-28T02:49:59.286Z,79.84
2018-08-28T02:51:02.174Z,80.29
2018-08-28T02:52:05.709Z,80.56
2018-08-28T02:53:08.617Z,80.21
2018-08-28T02:54:11.474Z,80.70
2018-08-28T02:55:14.351Z,80.42
2018-08-28T02:56:17.322Z,79.92
2018-08-28T02:57:20.237Z,81.15
2018-08-28T02:58:23.661Z,80.25
2018-08-28T02:59:26.567Z,80.49
2018-08-28T03:00:29.520Z,80.45
2018-08-28T03:01:32.433Z,80.22
2018-08-28T03:02:35.361Z,80.21
2018-08-28T03:03:38.225Z,80.06
2018-08-28T03:04:41.458Z,79.81
2018-08-28T03:05:44.346Z,80.10
2018-08-28T03:06:47.221Z,79.60
2018-08-28T03:07:50.101Z,80.39
2018-08-28T03:08:52.993Z,79.65
2018-08-28T03:09:55.893Z,80.05
2018-08-28T03:10:59.162Z,79.81
2018-08-28T03:12:02.062Z,80.63
2018-08-28T03:13:04.924Z,80.78
2018-08-28T03:14:07.862Z,80.69
2018-08-28T03:15:10.805Z,80.17
2018-08-28T03:16:13.687Z,80.75
2018-08-28T03:17:16.901Z,80.50
2018-08-28T03:18:19.790Z,80.45
2018-08-28T03:19:22.685Z,80.46
2018-08-28T03:20:25.574Z,80.47
2018-08-28T03:21:28.536Z,80.53
2018-08-28T03:22:33.910Z,80.74
2018-08-28T03:23:37.312Z,80.34
2018-08-28T03:24:40.219Z,81.14
2018-08-28T03:25:43.126Z,80.61
2018-08-28T03:26:46.045Z,80.75
2018-08-28T03:27:49.831Z,80.44
2018-08-28T03:28:52.769Z,80.62
2018-08-28T03:29:55.959Z,80.51
2018-08-28T03:30:58.866Z,80.79
2018-08-28T03:32:01.739Z,81.08
2018-08-28T03:33:04.686Z,80.83
2018-08-28T03:34:07.657Z,80.96
2018-08-28T03:35:10.534Z,81.25
2018-08-28T03:36:13.734Z,81.74
2018-08-28T03:37:16.639Z,81.81
2018-08-28T03:38:19.530Z,82.33
2018-08-28T03:39:22.431Z,81.61
2018-08-28T03:40:26.120Z,81.40
2018-08-28T03:41:29.567Z,81.59
2018-08-28T03:42:33.600Z,81.27
2018-08-28T03:43:36.529Z,81.72
2018-08-28T03:44:39.529Z,81.91
2018-08-28T03:45:42.424Z,82.04
2018-08-28T03:46:45.306Z,81.68
2018-08-28T03:47:48.192Z,82.12
2018-08-28T03:48:51.486Z,82.28
2018-08-28T03:49:54.370Z,82.36
2018-08-28T03:50:57.298Z,82.17
2018-08-28T03:52:00.221Z,82.48
2018-08-28T03:53:03.106Z,82.26
2018-08-28T03:54:05.981Z,82.37
2018-08-28T03:55:09.237Z,82.43
2018-08-28T03:56:12.134Z,82.17
2018-08-28T03:57:16.545Z,82.16
2018-08-28T03:58:21.929Z,82.84
2018-08-28T03:59:24.852Z,82.19
2018-08-28T04:00:27.779Z,82.11
2018-08-28T04:01:30.995Z,82.11
2018-08-28T04:02:34.982Z,81.81
2018-08-28T04:03:37.933Z,82.17
2018-08-28T04:04:40.885Z,82.86
2018-08-28T04:05:43.798Z,82.97
2018-08-28T04:06:46.736Z,82.61
2018-08-28T04:07:50.088Z,82.53
2018-08-28T04:08:52.950Z,82.30
2018-08-28T04:09:55.833Z,82.33
2018-08-28T04:10:58.732Z,82.71
2018-08-28T04:12:01.656Z,82.76
2018-08-28T04:13:04.517Z,82.92
2018-08-28T04:14:07.752Z,82.44
2018-08-28T04:15:10.751Z,82.75
2018-08-28T04:16:13.650Z,82.83
2018-08-28T04:17:16.547Z,82.44
2018-08-28T04:18:19.475Z,82.63
2018-08-28T04:19:22.378Z,82.73
2018-08-28T04:20:25.569Z,82.58
2018-08-28T04:21:28.466Z,82.77
2018-08-28T04:22:31.433Z,82.88
2018-08-28T04:23:34.426Z,82.56
2018-08-28T04:24:37.299Z,82.45
2018-08-28T04:25:40.165Z,82.43
2018-08-28T04:26:43.420Z,82.30
2018-08-28T04:27:46.807Z,82.26
2018-08-28T04:28:49.674Z,82.68
2018-08-28T04:29:52.547Z,82.79
2018-08-28T04:30:55.517Z,82.57
2018-08-28T04:31:58.451Z,83.08
2018-08-28T04:33:01.688Z,82.53
2018-08-28T04:34:04.584Z,82.70
2018-08-28T04:35:07.491Z,83.08
2018-08-28T04:36:11.110Z,82.90
2018-08-28T04:37:14.053Z,82.80
2018-08-28T04:38:16.950Z,82.40
2018-08-28T04:39:20.468Z,82.95
2018-08-28T04:40:23.347Z,82.49
2018-08-28T04:41:27.862Z,83.14
2018-08-28T04:42:31.354Z,82.66
2018-08-28T04:43:34.253Z,82.88
2018-08-28T04:44:37.173Z,82.39
2018-08-28T04:45:40.669Z,82.52
2018-08-28T04:46:43.566Z,82.88
2018-08-28T04:47:46.714Z,82.99
2018-08-28T04:48:49.651Z,82.65
2018-08-28T04:49:54.160Z,82.38
2018-08-28T04:50:57.030Z,82.53
2018-08-28T04:52:00.249Z,82.99
2018-08-28T04:53:03.182Z,83.17
2018-08-28T04:54:06.083Z,83.27
2018-08-28T04:55:08.974Z,83.60
2018-08-28T04:56:11.893Z,83.27
2018-08-28T04:57:14.814Z,83.14
2018-08-28T04:58:18.110Z,83.51
2018-08-28T04:59:21.033Z,83.35
2018-08-28T05:00:23.907Z,83.35
2018-08-28T05:01:26.794Z,83.03
2018-08-28T05:02:34.916Z,83.38
2018-08-28T05:03:37.815Z,83.40
2018-08-28T05:04:41.077Z,83.71
2018-08-28T05:05:43.956Z,83.51
2018-08-28T05:06:46.812Z,83.68
2018-08-28T05:07:49.720Z,83.37
2018-08-28T05:08:52.675Z,83.36
2018-08-28T05:09:55.539Z,83.18
2018-08-28T05:10:58.852Z,83.02
2018-08-28T05:12:01.710Z,83.54
2018-08-28T05:13:05.700Z,83.39
2018-08-28T05:14:08.636Z,83.57
2018-08-28T05:15:12.735Z,83.13
2018-08-28T05:16:15.634Z,82.94
2018-08-28T05:17:21.022Z,82.92
2018-08-28T05:18:23.891Z,82.54
2018-08-28T05:19:27.777Z,82.77
2018-08-28T05:20:30.709Z,82.99
2018-08-28T05:21:33.785Z,82.70
2018-08-28T05:22:36.664Z,83.11
2018-08-28T05:23:40.052Z,82.78
2018-08-28T05:24:44.510Z,83.06
2018-08-28T05:25:47.386Z,82.52
2018-08-28T05:26:51.239Z,82.72
2018-08-28T05:27:54.215Z,82.08
2018-08-28T05:28:58.139Z,82.38
2018-08-28T05:30:01.640Z,83.08
2018-08-28T05:33:29.870Z,83.31
2018-08-28T05:34:33.222Z,82.51
2018-08-28T05:35:36.431Z,82.76
2018-08-28T05:36:40.379Z,82.51
2018-08-28T05:37:43.305Z,82.24
2018-08-28T05:38:46.276Z,82.39
2018-08-28T05:39:49.198Z,82.25
2018-08-28T05:40:52.109Z,81.72
2018-08-28T05:41:55.029Z,81.74
2018-08-28T05:42:58.197Z,81.72
2018-08-28T05:44:01.148Z,81.66
2018-08-28T05:45:04.068Z,81.37
2018-08-28T05:46:07.095Z,81.53
2018-08-28T05:47:10.026Z,81.39
2018-08-28T05:48:13.851Z,81.48
2018-08-28T05:49:17.099Z,81.01
2018-08-28T05:50:20.029Z,81.02
2018-08-28T05:51:23.119Z,80.44
2018-08-28T05:52:26.014Z,80.87
2018-08-28T05:53:28.900Z,80.70
2018-08-28T05:54:31.777Z,80.40
2018-08-28T05:55:36.422Z,80.70
2018-08-28T05:56:39.310Z,80.37
2018-08-28T05:57:42.212Z,80.26
2018-08-28T05:58:45.301Z,79.85
2018-08-28T05:59:48.208Z,79.33
2018-08-28T06:00:51.149Z,79.52
2018-08-28T06:01:55.317Z,79.09
2018-08-28T06:02:58.309Z,79.45
2018-08-28T06:04:01.254Z,78.36
2018-08-28T06:05:05.228Z,78.27
2018-08-28T06:06:09.136Z,78.27
2018-08-28T06:07:12.524Z,78.68
2018-08-28T06:08:16.418Z,78.87
2018-08-28T06:09:19.299Z,77.64
2018-08-28T06:10:22.245Z,77.46
2018-08-28T06:11:25.740Z,77.93
2018-08-28T06:12:28.648Z,78.28
2018-08-28T06:13:31.666Z,77.74
2018-08-28T06:14:35.066Z,77.30
2018-08-28T06:15:38.603Z,76.88
2018-08-28T06:16:42.488Z,76.60
2018-08-28T06:17:45.375Z,76.90
2018-08-28T06:18:48.366Z,76.73
2018-08-28T06:19:51.658Z,76.26
2018-08-28T06:20:55.686Z,75.46
2018-08-28T06:21:58.676Z,75.16
2018-08-28T06:23:01.648Z,74.60
2018-08-28T06:24:04.560Z,73.91
2018-08-28T06:25:07.638Z,73.23
2018-08-28T06:26:11.044Z,72.22
2018-08-28T06:27:15.201Z,71.84
2018-08-28T06:28:18.122Z,71.20
2018-08-28T06:29:22.630Z,70.84
2018-08-28T06:30:25.659Z,71.06
2018-08-28T06:31:32.515Z,70.27
2018-08-28T06:32:36.234Z,69.28
2018-08-28T06:33:39.135Z,68.53
2018-08-28T06:34:42.119Z,67.50
2018-08-28T06:35:45.072Z,67.99
2018-08-28T06:36:49.172Z,67.15
2018-08-28T06:37:52.070Z,67.67
2018-08-28T06:38:55.481Z,67.02
2018-08-28T06:39:58.372Z,66.52
2018-08-28T06:41:04.255Z,66.44
2018-08-28T06:42:07.375Z,66.42
2018-08-28T06:43:10.389Z,65.68
2018-08-28T06:44:13.301Z,64.87
2018-08-28T06:45:16.631Z,64.72
2018-08-28T06:46:19.508Z,64.97
2018-08-28T06:47:22.415Z,64.63
2018-08-28T06:48:25.307Z,64.54
2018-08-28T06:49:28.588Z,64.05
2018-08-28T06:50:31.529Z,64.92
2018-08-28T06:51:34.984Z,65.17
2018-08-28T06:52:38.175Z,65.68
2018-08-28T06:53:42.550Z,65.75
2018-08-28T06:54:45.681Z,66.10
2018-08-28T06:55:48.770Z,65.78
2018-08-28T06:56:51.857Z,65.33
2018-08-28T06:57:55.833Z,64.11
2018-08-28T06:58:58.821Z,63.83
2018-08-28T07:00:01.886Z,63.61
2018-08-28T07:01:04.783Z,64.11
2018-08-28T07:02:07.851Z,63.53
2018-08-28T07:03:11.343Z,63.95
2018-08-28T07:04:14.703Z,62.66
2018-08-28T07:05:17.684Z,62.22
2018-08-28T07:06:20.564Z,62.44
2018-08-28T07:07:23.523Z,61.42
2018-08-28T07:08:27.335Z,61.71
2018-08-28T07:09:30.212Z,60.80
2018-08-28T07:10:33.605Z,61.30
2018-08-28T07:11:36.506Z,61.51
2018-08-28T07:12:39.440Z,61.36
2018-08-28T07:13:42.379Z,60.94
2018-08-28T07:14:45.300Z,61.09
2018-08-28T07:15:48.218Z,60.33
2018-08-28T07:16:52.166Z,59.11
2018-08-28T07:17:55.299Z,59.75
2018-08-28T07:19:02.025Z,59.81
2018-08-28T07:20:04.938Z,59.41
2018-08-28T07:21:07.835Z,59.58
2018-08-28T07:22:11.610Z,59.21
2018-08-28T07:23:15.639Z,59.11
2018-08-28T07:24:20.022Z,58.17
2018-08-28T07:25:23.577Z,57.50
2018-08-28T07:26:26.529Z,57.44
2018-08-28T07:27:29.419Z,58.27
2018-08-28T07:28:32.331Z,57.81
2018-08-28T07:29:35.549Z,58.55
2018-08-28T07:30:38.446Z,58.21
2018-08-28T07:31:41.380Z,57.01
2018-08-28T07:32:44.720Z,57.64
2018-08-28T07:33:47.641Z,58.01
2018-08-28T07:34:51.221Z,57.03
2018-08-28T07:35:54.726Z,56.48
2018-08-28T07:36:57.611Z,56.39
2018-08-28T07:38:00.506Z,56.09
2018-08-28T07:39:03.785Z,55.45
2018-08-28T07:40:06.853Z,55.96
2018-08-28T07:41:11.410Z,55.08
2018-08-28T07:42:14.772Z,55.36
2018-08-28T07:43:17.679Z,54.02
2018-08-28T07:44:20.642Z,54.39
2018-08-28T07:45:23.721Z,54.17
2018-08-28T07:46:26.651Z,54.23
2018-08-28T07:47:29.582Z,53.87
2018-08-28T07:48:32.837Z,53.71
2018-08-28T07:49:35.747Z,53.19
2018-08-28T07:50:38.659Z,52.86
2018-08-28T07:51:42.274Z,52.40
2018-08-28T07:52:45.253Z,52.58
2018-08-28T07:53:48.201Z,52.20
2018-08-28T07:54:51.126Z,50.85
2018-08-28T07:55:54.018Z,51.47
2018-08-28T07:56:56.968Z,52.07
2018-08-28T07:58:00.441Z,51.13
2018-08-28T07:59:03.476Z,51.90
2018-08-28T08:00:06.997Z,52.82
2018-08-28T08:01:11.986Z,52.75
2018-08-28T08:02:15.021Z,52.69
2018-08-28T08:03:21.850Z,53.59
2018-08-28T08:04:25.801Z,52.69
2018-08-28T08:05:29.567Z,52.67
2018-08-28T08:06:32.624Z,53.08
2018-08-28T08:07:36.330Z,53.35
2018-08-28T08:08:39.660Z,53.81
2018-08-28T08:09:42.641Z,54.57
2018-08-28T08:10:45.534Z,53.07
2018-08-28T08:11:48.429Z,53.30
2018-08-28T08:12:52.544Z,52.10
2018-08-28T08:13:55.777Z,51.18
2018-08-28T08:14:59.274Z,51.94
2018-08-28T08:16:02.242Z,51.60
2018-08-28T08:17:05.623Z,51.83
2018-08-28T08:18:08.538Z,51.86
2018-08-28T08:19:11.430Z,51.53
2018-08-28T08:20:15.620Z,52.06
2018-08-28T08:21:21.329Z,52.70
2018-08-28T08:22:27.916Z,52.16
2018-08-28T08:23:31.563Z,51.53
2018-08-28T08:24:34.591Z,52.30
2018-08-28T08:25:39.667Z,51.95
2018-08-28T08:26:43.861Z,52.93
2018-08-28T08:27:47.153Z,51.61
2018-08-28T08:28:51.510Z,52.53
2018-08-28T08:29:54.664Z,51.09
2018-08-28T08:30:57.582Z,49.23
2018-08-28T08:32:00.690Z,49.14
2018-08-28T08:33:04.487Z,47.79
2018-08-28T08:34:09.685Z,47.99
2018-08-28T08:35:12.942Z,46.66
2018-08-28T08:36:16.647Z,46.89
2018-08-28T08:37:20.470Z,45.64
2018-08-28T08:38:23.427Z,44.99
2018-08-28T08:39:27.373Z,45.17
2018-08-28T08:40:30.282Z,44.95
2018-08-28T08:41:33.207Z,44.69
2018-08-28T08:42:36.594Z,44.45
2018-08-28T08:43:39.978Z,45.03
2018-08-28T08:44:42.877Z,44.82
2018-08-28T08:45:46.229Z,45.18
2018-08-28T08:46:49.138Z,45.41
2018-08-28T08:47:53.768Z,43.47
2018-08-28T08:48:57.377Z,44.83
2018-08-28T08:50:00.332Z,44.40
2018-08-28T08:51:03.299Z,44.72
2018-08-28T08:52:07.456Z,45.47
2018-08-28T08:53:10.381Z,44.90
2018-08-28T08:54:14.859Z,42.95
2018-08-28T08:55:18.340Z,43.08
2018-08-28T08:56:21.669Z,42.25
2018-08-28T08:57:24.804Z,42.12
2018-08-28T08:58:28.247Z,41.34
2018-08-28T08:59:31.181Z,41.08
2018-08-28T09:00:34.087Z,40.98
2018-08-28T09:01:36.979Z,41.37
2018-08-28T09:02:40.450Z,41.12
2018-08-28T09:03:43.376Z,41.94
2018-08-28T09:04:48.388Z,41.20
2018-08-28T09:05:51.952Z,41.05
2018-08-28T09:06:55.522Z,41.88
2018-08-28T09:07:58.390Z,42.04
2018-08-28T09:09:02.725Z,41.34
2018-08-28T09:10:08.309Z,41.29
2018-08-28T09:11:11.612Z,42.39
2018-08-28T09:12:15.806Z,42.25
2018-08-28T09:13:19.123Z,41.72
2018-08-28T09:14:25.827Z,42.14
2018-08-28T09:15:28.782Z,40.75
2018-08-28T09:16:34.642Z,40.97
2018-08-28T09:17:38.657Z,40.03
2018-08-28T09:18:41.611Z,38.12
2018-08-28T09:19:45.414Z,38.15
2018-08-28T09:20:48.907Z,38.17
2018-08-28T09:21:51.796Z,38.95
2018-08-28T09:22:54.773Z,39.29
2018-08-28T09:23:58.066Z,38.85
2018-08-28T09:25:00.935Z,39.01
2018-08-28T09:26:03.884Z,39.36
2018-08-28T09:27:06.824Z,37.75
2018-08-28T09:28:10.273Z,37.40
2018-08-28T09:29:13.280Z,37.87
2018-08-28T09:30:16.523Z,38.05
2018-08-28T09:31:19.654Z,36.81
2018-08-28T09:32:24.423Z,35.86
2018-08-28T09:33:27.447Z,35.72
2018-08-28T09:34:30.666Z,36.35
2018-08-28T09:35:34.479Z,35.27
2018-08-28T09:36:39.792Z,35.89
2018-08-28T09:37:42.861Z,36.65
2018-08-28T09:38:46.416Z,36.82
2018-08-28T09:39:51.479Z,38.04
2018-08-28T09:40:54.402Z,37.38
2018-08-28T09:41:57.288Z,37.29
2018-08-28T09:43:01.978Z,36.69
2018-08-28T09:44:05.441Z,37.28
2018-08-28T09:45:08.339Z,38.29
2018-08-28T09:46:12.630Z,40.25
2018-08-28T09:47:15.537Z,39.79
2018-08-28T09:48:19.123Z,40.30
2018-08-28T09:49:23.166Z,39.88
2018-08-28T09:50:27.798Z,39.57
2018-08-28T09:51:30.772Z,39.22
2018-08-28T09:52:35.367Z,39.71
2018-08-28T09:53:38.478Z,40.94
2018-08-28T09:54:42.762Z,42.31
2018-08-28T09:55:46.244Z,43.38
2018-08-28T09:56:49.408Z,43.14
2018-08-28T09:57:53.351Z,41.92
2018-08-28T09:58:56.521Z,40.25
2018-08-28T10:00:01.687Z,39.89
2018-08-28T10:01:10.344Z,38.67
2018-08-28T10:02:14.604Z,38.82
2018-08-28T10:03:17.542Z,37.65
2018-08-28T10:04:20.567Z,39.54
2018-08-28T10:05:23.504Z,41.04
2018-08-28T10:06:27.303Z,40.32
2018-08-28T10:07:31.562Z,39.64
2018-08-28T10:08:35.209Z,39.55
2018-08-28T10:09:38.557Z,39.24
2018-08-28T10:10:42.442Z,37.90
2018-08-28T10:11:45.746Z,37.87
2018-08-28T10:12:48.648Z,39.02
2018-08-28T10:13:52.776Z,39.62
2018-08-28T10:14:55.813Z,39.90
2018-08-28T10:15:58.743Z,40.56
2018-08-28T10:17:03.155Z,40.03
2018-08-28T10:18:06.218Z,39.41
2018-08-28T10:19:09.290Z,39.27
2018-08-28T10:20:15.638Z,39.05
2018-08-28T10:21:19.081Z,39.40
2018-08-28T10:22:22.010Z,37.88
2018-08-28T10:23:27.088Z,38.78
2018-08-28T10:24:32.643Z,36.94
2018-08-28T10:25:35.806Z,37.14
2018-08-28T10:26:40.648Z,40.20
2018-08-28T10:27:45.529Z,40.24
2018-08-28T10:28:48.411Z,40.82
2018-08-28T10:29:51.349Z,43.37
2018-08-28T10:32:34.452Z,41.42
2018-08-28T10:33:37.827Z,41.58
2018-08-28T10:34:40.894Z,42.90
2018-08-28T10:35:44.117Z,43.36
2018-08-28T10:36:47.146Z,41.00
2018-08-28T10:37:52.231Z,40.75
2018-08-28T10:39:01.115Z,40.79
2018-08-28T10:40:05.856Z,39.43
2018-08-28T10:41:11.266Z,40.80
2018-08-28T10:42:15.246Z,39.88
2018-08-28T10:43:19.164Z,39.59
2018-08-28T10:44:24.747Z,39.10
2018-08-28T10:45:28.538Z,40.05
2018-08-28T10:46:31.600Z,40.38
2018-08-28T10:47:34.794Z,39.83
2018-08-28T10:48:37.761Z,40.38
2018-08-28T10:49:42.493Z,39.36
2018-08-28T10:50:45.375Z,40.02
2018-08-28T10:51:50.544Z,40.37
2018-08-28T10:52:53.803Z,39.76
2018-08-28T10:53:59.637Z,40.06
2018-08-28T10:55:03.152Z,38.47
2018-08-28T10:56:06.869Z,37.91
2018-08-28T10:57:17.461Z,37.32
2018-08-28T10:58:20.586Z,39.09
2018-08-28T10:59:26.422Z,39.12
2018-08-28T11:00:37.643Z,39.90
2018-08-28T11:01:43.656Z,41.32
2018-08-28T11:02:54.157Z,41.53
2018-08-28T11:04:03.325Z,39.57
2018-08-28T11:05:06.217Z,39.67
2018-08-28T11:06:09.301Z,39.07
2018-08-28T11:07:15.462Z,37.83
2018-08-28T11:08:18.391Z,38.58
2018-08-28T11:09:21.694Z,37.47
2018-08-28T11:10:25.382Z,38.59
2018-08-28T11:11:28.821Z,37.80
2018-08-28T11:12:32.266Z,38.53
2018-08-28T11:13:35.987Z,37.65
2018-08-28T11:14:39.629Z,37.35
2018-08-28T11:15:43.450Z,36.65
2018-08-28T11:16:46.370Z,34.88
2018-08-28T11:17:49.295Z,37.24
2018-08-28T11:18:52.390Z,37.77
2018-08-28T11:19:57.418Z,38.04
2018-08-28T11:21:00.963Z,37.84
2018-08-28T11:22:05.718Z,37.71
2018-08-28T11:23:08.743Z,37.64
2018-08-28T11:24:11.684Z,38.58
2018-08-28T11:25:14.598Z,39.36
2018-08-28T11:26:17.780Z,39.55
2018-08-28T11:27:20.743Z,38.04
2018-08-28T11:28:23.937Z,37.76
2018-08-28T11:29:26.860Z,37.64
2018-08-28T11:30:31.014Z,36.16
2018-08-28T11:31:33.912Z,36.59
2018-08-28T11:32:38.045Z,35.25
2018-08-28T11:33:40.938Z,34.79
2018-08-28T11:34:44.347Z,35.53
2018-08-28T11:35:48.255Z,35.70
2018-08-28T11:36:51.328Z,36.39
2018-08-28T11:37:55.369Z,38.20
2018-08-28T11:38:59.848Z,38.55
2018-08-28T11:40:03.399Z,36.82
2018-08-28T11:41:08.626Z,36.93
2018-08-28T11:42:11.630Z,37.51
2018-08-28T11:43:15.599Z,36.66
2018-08-28T11:44:19.293Z,36.37
2018-08-28T11:45:22.778Z,36.50
2018-08-28T11:46:25.697Z,35.72
2018-08-28T11:47:30.125Z,37.42
2018-08-28T11:48:33.048Z,37.55
2018-08-28T11:49:36.159Z,37.82
2018-08-28T11:50:39.572Z,36.90
2018-08-28T11:51:43.978Z,36.80
2018-08-28T11:52:49.904Z,36.06
2018-08-28T11:53:55.386Z,34.30
2018-08-28T11:54:58.346Z,33.33
2018-08-28T11:56:01.245Z,36.30
2018-08-28T11:57:04.651Z,38.54
2018-08-28T11:58:10.653Z,38.14
2018-08-28T11:59:15.310Z,36.81
2018-08-28T12:00:20.527Z,36.90
2018-08-28T12:01:26.485Z,35.74
2018-08-28T12:02:30.459Z,35.22
2018-08-28T12:03:34.514Z,33.80
2018-08-28T12:04:37.430Z,34.06
2018-08-28T12:05:41.673Z,34.15
2018-08-28T12:06:44.642Z,35.55
2018-08-28T12:07:47.887Z,36.01
2018-08-28T12:08:51.640Z,37.44
2018-08-28T12:09:55.145Z,38.16
2018-08-28T12:10:58.080Z,37.34
2018-08-28T12:12:01.064Z,38.25
2018-08-28T12:13:04.282Z,37.09
2018-08-28T12:14:07.367Z,36.27
2018-08-28T12:15:11.622Z,35.30
2018-08-28T12:16:14.793Z,36.68
2018-08-28T12:17:18.348Z,35.87
2018-08-28T12:18:21.889Z,36.42
2018-08-28T12:19:25.276Z,36.31
2018-08-28T12:20:28.281Z,38.11
2018-08-28T12:21:31.205Z,37.52
2018-08-28T12:22:34.118Z,36.63
2018-08-28T12:23:40.009Z,37.08
2018-08-28T12:24:42.923Z,38.07
2018-08-28T12:25:46.144Z,39.24
2018-08-28T12:26:49.149Z,39.40
2018-08-28T12:27:52.869Z,39.47
2018-08-28T12:28:55.777Z,38.78
2018-08-28T12:29:58.662Z,38.17
2018-08-28T12:31:01.560Z,37.92
2018-08-28T12:32:04.850Z,36.78
2018-08-28T12:33:07.745Z,34.91
2018-08-28T12:34:10.747Z,33.74
2018-08-28T12:35:14.209Z,34.44
2018-08-28T12:36:17.105Z,34.57
2018-08-28T12:37:22.077Z,35.18
2018-08-28T12:38:26.858Z,34.88
2018-08-28T12:39:30.363Z,34.34
2018-08-28T12:40:33.262Z,34.98
2018-08-28T12:41:38.190Z,35.57
2018-08-28T12:42:42.181Z,35.28
2018-08-28T12:43:45.108Z,34.27
2018-08-28T12:44:49.543Z,33.33
2018-08-28T12:45:52.431Z,33.53
2018-08-28T12:46:55.622Z,35.43
2018-08-28T12:47:58.571Z,35.09
2018-08-28T12:49:03.136Z,34.92
2018-08-28T12:50:06.277Z,36.21
2018-08-28T12:51:13.938Z,35.05
2018-08-28T12:52:18.121Z,36.30
2018-08-28T12:53:23.072Z,36.02
2018-08-28T12:54:26.014Z,36.96
2018-08-28T12:55:28.961Z,36.74
2018-08-28T12:56:32.627Z,36.60
2018-08-28T12:57:35.845Z,36.13
2018-08-28T12:58:39.318Z,36.70
2018-08-28T12:59:43.952Z,36.33
2018-08-28T13:00:47.942Z,36.13
2018-08-28T13:01:50.798Z,36.12
2018-08-28T13:02:54.797Z,35.62
2018-08-28T13:03:59.633Z,34.44
2018-08-28T13:05:03.588Z,35.52
2018-08-28T13:06:09.485Z,36.28
2018-08-28T13:07:13.901Z,36.36
2018-08-28T13:08:19.341Z,36.56
2018-08-28T13:09:22.394Z,36.03
2018-08-28T13:10:26.758Z,35.14
2018-08-28T13:11:36.505Z,34.59
2018-08-28T13:12:39.423Z,34.65
2018-08-28T13:13:43.300Z,34.75
2018-08-28T13:14:49.301Z,34.84
2018-08-28T13:15:52.716Z,34.59
2018-08-28T13:16:55.999Z,34.22
2018-08-28T13:17:58.936Z,33.67
2018-08-28T13:19:01.840Z,33.55
2018-08-28T13:20:09.461Z,33.34
2018-08-28T13:21:12.564Z,32.97
2018-08-28T13:22:15.463Z,33.73
2018-08-28T13:23:18.785Z,34.79
2018-08-28T13:24:22.496Z,35.73
2018-08-28T13:25:25.433Z,36.58
2018-08-28T13:26:28.330Z,36.37
2018-08-28T13:27:32.036Z,37.32
2018-08-28T13:28:35.647Z,37.50
2018-08-28T13:29:40.297Z,36.91
2018-08-28T13:30:43.258Z,35.68
2018-08-28T13:31:48.501Z,34.28
2018-08-28T13:32:51.382Z,33.39
2018-08-28T13:33:55.327Z,33.65
2018-08-28T13:34:59.386Z,35.16
2018-08-28T13:36:02.786Z,35.18
2018-08-28T13:38:16.036Z,33.47
2018-08-28T13:39:18.978Z,32.96
2018-08-28T13:40:21.894Z,33.34
2018-08-28T13:41:27.402Z,34.57
2018-08-28T13:42:31.582Z,34.41